sensor_id;sensor_type;location;lat;lon;timestamp;temperature;humidity
11840;DHT22;5979;50.800;4.904;2023-04-03T00:01:55;3.90;99.90
11840;DHT22;5979;50.800;4.904;2023-04-03T00:04:21;3.90;99.90
11840;DHT22;5979;50.800;4.904;2023-04-03T00:06:47;3.90;99.90
11840;DHT22;5979;50.800;4.904;2023-04-03T00:09:12;3.90;99.90
11840;DHT22;5979;50.800;4.904;2023-04-03T00:11:38;3.90;99.90
11840;DHT22;5979;50.800;4.904;2023-04-03T00:14:04;3.80;99.90
11840;DHT22;5979;50.800;4.904;2023-04-03T00:16:29;3.80;99.90
11840;DHT22;5979;50.800;4.904;2023-04-03T00:18:55;3.80;99.90
11840;DHT22;5979;50.800;4.904;2023-04-03T00:21:21;3.80;99.90
11840;DHT22;5979;50.800;4.904;2023-04-03T00:23:46;3.80;99.90
11840;DHT22;5979;50.800;4.904;2023-04-03T00:26:12;3.80;99.90
11840;DHT22;5979;50.800;4.904;2023-04-03T00:28:38;3.80;99.90
11840;DHT22;5979;50.800;4.904;2023-04-03T00:31:03;3.80;99.90
11840;DHT22;5979;50.800;4.904;2023-04-03T00:33:29;3.80;99.90
11840;DHT22;5979;50.800;4.904;2023-04-03T00:35:55;3.80;99.90
11840;DHT22;5979;50.800;4.904;2023-04-03T00:38:21;3.80;99.90
11840;DHT22;5979;50.800;4.904;2023-04-03T00:40:48;3.80;99.90
11840;DHT22;5979;50.800;4.904;2023-04-03T00:43:22;3.70;99.90
11840;DHT22;5979;50.800;4.904;2023-04-03T00:45:50;3.80;99.90
11840;DHT22;5979;50.800;4.904;2023-04-03T00:50:58;3.70;99.90
11840;DHT22;5979;50.800;4.904;2023-04-03T00:53:37;3.70;99.90
11840;DHT22;5979;50.800;4.904;2023-04-03T00:56:07;3.70;99.90
11840;DHT22;5979;50.800;4.904;2023-04-03T00:58:52;3.70;99.90
11840;DHT22;5979;50.800;4.904;2023-04-03T01:01:22;3.70;99.90
11840;DHT22;5979;50.800;4.904;2023-04-03T01:03:48;3.70;99.90
11840;DHT22;5979;50.800;4.904;2023-04-03T01:06:17;3.60;99.90
11840;DHT22;5979;50.800;4.904;2023-04-03T01:08:44;3.60;99.90
11840;DHT22;5979;50.800;4.904;2023-04-03T01:11:12;3.60;99.90
11840;DHT22;5979;50.800;4.904;2023-04-03T01:13:37;3.50;99.90
11840;DHT22;5979;50.800;4.904;2023-04-03T01:16:05;3.50;99.90
11840;DHT22;5979;50.800;4.904;2023-04-03T01:18:32;3.40;99.90
11840;DHT22;5979;50.800;4.904;2023-04-03T01:24:27;3.30;99.90
11840;DHT22;5979;50.800;4.904;2023-04-03T01:26:53;3.30;99.90
11840;DHT22;5979;50.800;4.904;2023-04-03T01:29:19;3.30;99.90
11840;DHT22;5979;50.800;4.904;2023-04-03T01:31:57;3.30;99.90
11840;DHT22;5979;50.800;4.904;2023-04-03T01:34:24;3.30;99.90
11840;DHT22;5979;50.800;4.904;2023-04-03T01:36:50;3.30;99.90
11840;DHT22;5979;50.800;4.904;2023-04-03T01:39:16;3.20;99.90
11840;DHT22;5979;50.800;4.904;2023-04-03T01:41:42;3.30;99.90
11840;DHT22;5979;50.800;4.904;2023-04-03T01:44:08;3.20;99.90
11840;DHT22;5979;50.800;4.904;2023-04-03T01:46:34;3.20;99.90
11840;DHT22;5979;50.800;4.904;2023-04-03T01:49:00;3.20;99.90
11840;DHT22;5979;50.800;4.904;2023-04-03T01:51:25;3.20;99.90
11840;DHT22;5979;50.800;4.904;2023-04-03T01:53:51;3.20;99.90
11840;DHT22;5979;50.800;4.904;2023-04-03T01:56:17;3.20;99.90
11840;DHT22;5979;50.800;4.904;2023-04-03T01:58:43;3.20;99.90
11840;DHT22;5979;50.800;4.904;2023-04-03T02:01:08;3.20;99.90
11840;DHT22;5979;50.800;4.904;2023-04-03T02:03:34;3.10;99.90
11840;DHT22;5979;50.800;4.904;2023-04-03T02:06:00;3.10;99.90
11840;DHT22;5979;50.800;4.904;2023-04-03T02:08:25;3.10;99.90
11840;DHT22;5979;50.800;4.904;2023-04-03T02:10:51;3.10;99.90
11840;DHT22;5979;50.800;4.904;2023-04-03T02:13:18;3.10;99.90
11840;DHT22;5979;50.800;4.904;2023-04-03T02:15:45;3.10;99.90
11840;DHT22;5979;50.800;4.904;2023-04-03T02:18:11;3.00;99.90
11840;DHT22;5979;50.800;4.904;2023-04-03T02:20:37;3.10;99.90
11840;DHT22;5979;50.800;4.904;2023-04-03T02:23:03;3.10;99.90
11840;DHT22;5979;50.800;4.904;2023-04-03T02:25:30;3.00;99.90
11840;DHT22;5979;50.800;4.904;2023-04-03T02:27:56;3.00;99.90
11840;DHT22;5979;50.800;4.904;2023-04-03T02:30:21;3.00;99.90
11840;DHT22;5979;50.800;4.904;2023-04-03T02:32:47;3.00;99.90
11840;DHT22;5979;50.800;4.904;2023-04-03T02:35:13;3.00;99.90
11840;DHT22;5979;50.800;4.904;2023-04-03T02:37:39;3.00;99.90
11840;DHT22;5979;50.800;4.904;2023-04-03T02:40:06;3.00;99.90
11840;DHT22;5979;50.800;4.904;2023-04-03T02:42:32;3.00;99.90
11840;DHT22;5979;50.800;4.904;2023-04-03T02:44:58;3.00;99.90
11840;DHT22;5979;50.800;4.904;2023-04-03T02:47:26;3.00;99.90
11840;DHT22;5979;50.800;4.904;2023-04-03T02:49:52;3.00;99.90
11840;DHT22;5979;50.800;4.904;2023-04-03T02:52:18;3.00;99.90
11840;DHT22;5979;50.800;4.904;2023-04-03T02:54:44;2.90;99.90
11840;DHT22;5979;50.800;4.904;2023-04-03T02:57:10;2.90;99.90
11840;DHT22;5979;50.800;4.904;2023-04-03T02:59:36;2.80;99.90
11840;DHT22;5979;50.800;4.904;2023-04-03T03:02:03;2.70;99.90
11840;DHT22;5979;50.800;4.904;2023-04-03T03:04:28;2.60;99.90
11840;DHT22;5979;50.800;4.904;2023-04-03T03:06:54;2.60;99.90
11840;DHT22;5979;50.800;4.904;2023-04-03T03:09:20;2.60;99.90
11840;DHT22;5979;50.800;4.904;2023-04-03T03:11:46;2.50;99.90
11840;DHT22;5979;50.800;4.904;2023-04-03T03:14:11;2.50;99.90
11840;DHT22;5979;50.800;4.904;2023-04-03T03:16:37;2.50;99.90
11840;DHT22;5979;50.800;4.904;2023-04-03T03:19:03;2.50;99.90
11840;DHT22;5979;50.800;4.904;2023-04-03T03:21:28;2.50;99.90
11840;DHT22;5979;50.800;4.904;2023-04-03T03:23:54;2.40;99.90
11840;DHT22;5979;50.800;4.904;2023-04-03T03:26:20;2.40;99.90
11840;DHT22;5979;50.800;4.904;2023-04-03T03:28:46;2.40;99.90
11840;DHT22;5979;50.800;4.904;2023-04-03T03:31:12;2.30;99.90
11840;DHT22;5979;50.800;4.904;2023-04-03T03:33:37;2.30;99.90
11840;DHT22;5979;50.800;4.904;2023-04-03T03:36:03;2.30;99.90
11840;DHT22;5979;50.800;4.904;2023-04-03T03:38:29;2.30;99.90
11840;DHT22;5979;50.800;4.904;2023-04-03T03:40:55;2.30;99.90
11840;DHT22;5979;50.800;4.904;2023-04-03T03:43:21;2.30;99.90
11840;DHT22;5979;50.800;4.904;2023-04-03T03:45:50;2.30;99.90
11840;DHT22;5979;50.800;4.904;2023-04-03T03:48:16;2.30;99.90
11840;DHT22;5979;50.800;4.904;2023-04-03T03:50:42;2.30;99.90
11840;DHT22;5979;50.800;4.904;2023-04-03T03:53:08;2.30;99.90
11840;DHT22;5979;50.800;4.904;2023-04-03T03:55:34;2.30;99.90
11840;DHT22;5979;50.800;4.904;2023-04-03T03:57:59;2.20;99.90
11840;DHT22;5979;50.800;4.904;2023-04-03T04:00:26;2.30;99.90
11840;DHT22;5979;50.800;4.904;2023-04-03T04:02:52;2.20;99.90
11840;DHT22;5979;50.800;4.904;2023-04-03T04:05:18;2.20;99.90
11840;DHT22;5979;50.800;4.904;2023-04-03T04:07:43;2.10;99.90
11840;DHT22;5979;50.800;4.904;2023-04-03T04:10:09;2.10;99.90
11840;DHT22;5979;50.800;4.904;2023-04-03T04:12:35;2.10;99.90
11840;DHT22;5979;50.800;4.904;2023-04-03T04:15:02;2.10;99.90
11840;DHT22;5979;50.800;4.904;2023-04-03T04:17:27;2.10;99.90
11840;DHT22;5979;50.800;4.904;2023-04-03T04:19:53;2.10;99.90
11840;DHT22;5979;50.800;4.904;2023-04-03T04:22:19;2.10;99.90
11840;DHT22;5979;50.800;4.904;2023-04-03T04:24:44;2.10;99.90
11840;DHT22;5979;50.800;4.904;2023-04-03T04:27:10;2.20;99.90
11840;DHT22;5979;50.800;4.904;2023-04-03T04:29:36;2.10;99.90
11840;DHT22;5979;50.800;4.904;2023-04-03T04:32:03;2.10;99.90
11840;DHT22;5979;50.800;4.904;2023-04-03T04:34:29;2.10;99.90
11840;DHT22;5979;50.800;4.904;2023-04-03T04:36:55;2.10;99.90
11840;DHT22;5979;50.800;4.904;2023-04-03T04:39:20;2.10;99.90
11840;DHT22;5979;50.800;4.904;2023-04-03T04:41:46;2.10;99.90
11840;DHT22;5979;50.800;4.904;2023-04-03T04:44:12;2.10;99.90
11840;DHT22;5979;50.800;4.904;2023-04-03T04:46:37;2.10;99.90
11840;DHT22;5979;50.800;4.904;2023-04-03T04:49:03;2.00;99.90
11840;DHT22;5979;50.800;4.904;2023-04-03T04:51:30;2.00;99.90
11840;DHT22;5979;50.800;4.904;2023-04-03T04:53:55;2.00;99.90
11840;DHT22;5979;50.800;4.904;2023-04-03T04:56:21;1.90;99.90
11840;DHT22;5979;50.800;4.904;2023-04-03T04:58:47;1.90;99.90
11840;DHT22;5979;50.800;4.904;2023-04-03T05:01:13;1.90;99.90
11840;DHT22;5979;50.800;4.904;2023-04-03T05:03:38;1.90;99.90
11840;DHT22;5979;50.800;4.904;2023-04-03T05:06:04;1.90;99.90
11840;DHT22;5979;50.800;4.904;2023-04-03T05:08:30;1.90;99.90
11840;DHT22;5979;50.800;4.904;2023-04-03T05:10:56;1.90;99.90
11840;DHT22;5979;50.800;4.904;2023-04-03T05:13:22;1.90;99.90
11840;DHT22;5979;50.800;4.904;2023-04-03T05:15:48;1.90;99.90
11840;DHT22;5979;50.800;4.904;2023-04-03T05:18:14;1.90;99.90
11840;DHT22;5979;50.800;4.904;2023-04-03T05:20:40;1.90;99.90
11840;DHT22;5979;50.800;4.904;2023-04-03T05:23:05;1.90;99.90
11840;DHT22;5979;50.800;4.904;2023-04-03T05:25:31;2.00;99.90
11840;DHT22;5979;50.800;4.904;2023-04-03T05:27:57;2.10;99.90
11840;DHT22;5979;50.800;4.904;2023-04-03T05:30:23;2.30;99.90
11840;DHT22;5979;50.800;4.904;2023-04-03T05:32:49;2.50;99.90
11840;DHT22;5979;50.800;4.904;2023-04-03T05:35:15;2.80;99.90
11840;DHT22;5979;50.800;4.904;2023-04-03T05:37:40;3.00;99.90
11840;DHT22;5979;50.800;4.904;2023-04-03T05:40:07;3.30;99.90
11840;DHT22;5979;50.800;4.904;2023-04-03T05:42:33;3.60;99.90
11840;DHT22;5979;50.800;4.904;2023-04-03T05:45:00;3.90;99.90
11840;DHT22;5979;50.800;4.904;2023-04-03T05:47:25;4.10;99.90
11840;DHT22;5979;50.800;4.904;2023-04-03T05:49:51;4.30;99.90
11840;DHT22;5979;50.800;4.904;2023-04-03T05:52:27;4.40;99.90
11840;DHT22;5979;50.800;4.904;2023-04-03T05:54:54;4.60;99.90
11840;DHT22;5979;50.800;4.904;2023-04-03T05:57:20;4.70;99.90
11840;DHT22;5979;50.800;4.904;2023-04-03T05:59:47;4.60;99.90
11840;DHT22;5979;50.800;4.904;2023-04-03T06:02:16;4.50;99.90
11840;DHT22;5979;50.800;4.904;2023-04-03T06:04:42;4.50;99.90
11840;DHT22;5979;50.800;4.904;2023-04-03T06:07:12;4.60;99.90
11840;DHT22;5979;50.800;4.904;2023-04-03T06:09:38;4.80;99.90
11840;DHT22;5979;50.800;4.904;2023-04-03T06:12:04;5.00;99.90
11840;DHT22;5979;50.800;4.904;2023-04-03T06:14:30;5.20;99.90
11840;DHT22;5979;50.800;4.904;2023-04-03T06:16:56;5.30;99.90
11840;DHT22;5979;50.800;4.904;2023-04-03T06:19:22;5.40;99.90
11840;DHT22;5979;50.800;4.904;2023-04-03T06:21:48;5.50;99.90
11840;DHT22;5979;50.800;4.904;2023-04-03T06:24:15;5.50;99.90
11840;DHT22;5979;50.800;4.904;2023-04-03T06:26:42;5.50;99.90
11840;DHT22;5979;50.800;4.904;2023-04-03T06:29:08;5.40;99.90
11840;DHT22;5979;50.800;4.904;2023-04-03T06:31:33;5.40;99.90
11840;DHT22;5979;50.800;4.904;2023-04-03T06:33:59;5.20;99.90
11840;DHT22;5979;50.800;4.904;2023-04-03T06:36:25;5.00;99.90
11840;DHT22;5979;50.800;4.904;2023-04-03T06:38:51;5.00;99.90
11840;DHT22;5979;50.800;4.904;2023-04-03T06:41:17;5.00;99.90
11840;DHT22;5979;50.800;4.904;2023-04-03T06:43:46;5.00;99.90
11840;DHT22;5979;50.800;4.904;2023-04-03T06:46:21;5.10;99.90
11840;DHT22;5979;50.800;4.904;2023-04-03T06:48:47;5.10;99.90
11840;DHT22;5979;50.800;4.904;2023-04-03T06:51:32;5.10;99.90
11840;DHT22;5979;50.800;4.904;2023-04-03T06:53:58;5.20;99.90
11840;DHT22;5979;50.800;4.904;2023-04-03T06:56:25;5.30;99.90
11840;DHT22;5979;50.800;4.904;2023-04-03T06:58:52;5.30;99.90
11840;DHT22;5979;50.800;4.904;2023-04-03T07:01:20;5.30;99.90
11840;DHT22;5979;50.800;4.904;2023-04-03T07:03:46;5.50;99.90
11840;DHT22;5979;50.800;4.904;2023-04-03T07:06:14;5.50;99.90
11840;DHT22;5979;50.800;4.904;2023-04-03T07:08:40;5.60;99.90
11840;DHT22;5979;50.800;4.904;2023-04-03T07:11:06;5.70;99.90
11840;DHT22;5979;50.800;4.904;2023-04-03T07:13:32;5.70;99.90
11840;DHT22;5979;50.800;4.904;2023-04-03T07:15:58;5.80;99.90
11840;DHT22;5979;50.800;4.904;2023-04-03T07:18:24;5.60;99.90
11840;DHT22;5979;50.800;4.904;2023-04-03T07:20:50;5.60;99.90
11840;DHT22;5979;50.800;4.904;2023-04-03T07:23:16;5.50;99.90
11840;DHT22;5979;50.800;4.904;2023-04-03T07:25:47;5.60;99.90
11840;DHT22;5979;50.800;4.904;2023-04-03T07:28:14;5.70;99.90
11840;DHT22;5979;50.800;4.904;2023-04-03T07:31:08;5.70;99.90
11840;DHT22;5979;50.800;4.904;2023-04-03T07:33:36;5.80;99.90
11840;DHT22;5979;50.800;4.904;2023-04-03T07:36:03;5.70;99.90
11840;DHT22;5979;50.800;4.904;2023-04-03T07:38:29;5.70;99.90
11840;DHT22;5979;50.800;4.904;2023-04-03T07:40:54;5.80;99.90
11840;DHT22;5979;50.800;4.904;2023-04-03T07:43:21;5.80;99.90
11840;DHT22;5979;50.800;4.904;2023-04-03T07:45:48;5.90;99.90
11840;DHT22;5979;50.800;4.904;2023-04-03T07:48:17;6.00;99.90
11840;DHT22;5979;50.800;4.904;2023-04-03T07:50:44;6.10;99.90
11840;DHT22;5979;50.800;4.904;2023-04-03T07:53:10;6.20;99.90
11840;DHT22;5979;50.800;4.904;2023-04-03T07:55:36;6.20;99.90
11840;DHT22;5979;50.800;4.904;2023-04-03T07:58:12;6.10;99.90
11840;DHT22;5979;50.800;4.904;2023-04-03T08:00:38;6.20;99.90
11840;DHT22;5979;50.800;4.904;2023-04-03T08:03:05;6.40;99.90
11840;DHT22;5979;50.800;4.904;2023-04-03T08:05:31;6.50;99.90
11840;DHT22;5979;50.800;4.904;2023-04-03T08:07:57;6.50;99.90
11840;DHT22;5979;50.800;4.904;2023-04-03T08:10:22;6.60;99.90
11840;DHT22;5979;50.800;4.904;2023-04-03T08:12:48;6.70;99.90
11840;DHT22;5979;50.800;4.904;2023-04-03T08:15:14;6.70;99.90
11840;DHT22;5979;50.800;4.904;2023-04-03T08:17:40;6.90;99.90
11840;DHT22;5979;50.800;4.904;2023-04-03T08:20:06;6.90;99.90
11840;DHT22;5979;50.800;4.904;2023-04-03T08:22:34;7.00;99.90
11840;DHT22;5979;50.800;4.904;2023-04-03T08:25:00;7.00;99.90
11840;DHT22;5979;50.800;4.904;2023-04-03T08:27:27;6.90;99.90
11840;DHT22;5979;50.800;4.904;2023-04-03T08:29:53;7.00;99.90
11840;DHT22;5979;50.800;4.904;2023-04-03T08:32:18;7.20;99.90
11840;DHT22;5979;50.800;4.904;2023-04-03T08:34:44;7.40;99.90
11840;DHT22;5979;50.800;4.904;2023-04-03T08:37:10;7.60;99.90
11840;DHT22;5979;50.800;4.904;2023-04-03T08:39:36;7.70;99.90
11840;DHT22;5979;50.800;4.904;2023-04-03T08:42:07;7.80;99.90
11840;DHT22;5979;50.800;4.904;2023-04-03T08:52:52;8.00;99.90
11840;DHT22;5979;50.800;4.904;2023-04-03T08:55:33;8.10;99.90
11840;DHT22;5979;50.800;4.904;2023-04-03T08:58:29;8.00;99.90
11840;DHT22;5979;50.800;4.904;2023-04-03T09:01:00;8.00;99.90
11840;DHT22;5979;50.800;4.904;2023-04-03T09:03:38;8.00;99.90
11840;DHT22;5979;50.800;4.904;2023-04-03T09:06:15;8.00;99.90
11840;DHT22;5979;50.800;4.904;2023-04-03T09:14:19;8.00;99.90
11840;DHT22;5979;50.800;4.904;2023-04-03T09:17:09;8.00;99.90
11840;DHT22;5979;50.800;4.904;2023-04-03T09:19:57;8.20;99.90
11840;DHT22;5979;50.800;4.904;2023-04-03T09:22:25;8.10;99.90
11840;DHT22;5979;50.800;4.904;2023-04-03T09:25:00;8.20;99.90
11840;DHT22;5979;50.800;4.904;2023-04-03T09:27:27;8.20;99.90
11840;DHT22;5979;50.800;4.904;2023-04-03T09:29:55;8.00;99.90
11840;DHT22;5979;50.800;4.904;2023-04-03T09:34:59;8.40;99.90
11840;DHT22;5979;50.800;4.904;2023-04-03T09:37:42;8.50;99.90
11840;DHT22;5979;50.800;4.904;2023-04-03T09:42:58;8.50;99.90
11840;DHT22;5979;50.800;4.904;2023-04-03T09:45:32;8.60;99.90
11840;DHT22;5979;50.800;4.904;2023-04-03T09:50:30;8.60;99.90
11840;DHT22;5979;50.800;4.904;2023-04-03T09:52:56;8.70;99.90
11840;DHT22;5979;50.800;4.904;2023-04-03T09:55:24;8.70;99.90
11840;DHT22;5979;50.800;4.904;2023-04-03T09:58:02;8.70;99.90
11840;DHT22;5979;50.800;4.904;2023-04-03T10:00:37;8.70;99.90
11840;DHT22;5979;50.800;4.904;2023-04-03T10:03:04;8.70;99.90
11840;DHT22;5979;50.800;4.904;2023-04-03T10:05:39;8.80;99.90
11840;DHT22;5979;50.800;4.904;2023-04-03T10:10:46;8.90;99.90
11840;DHT22;5979;50.800;4.904;2023-04-03T10:13:20;9.00;99.90
11840;DHT22;5979;50.800;4.904;2023-04-03T10:18:33;9.10;99.90
11840;DHT22;5979;50.800;4.904;2023-04-03T10:21:15;9.10;99.90
11840;DHT22;5979;50.800;4.904;2023-04-03T10:24:10;9.10;99.90
11840;DHT22;5979;50.800;4.904;2023-04-03T10:29:40;9.00;99.90
11840;DHT22;5979;50.800;4.904;2023-04-03T10:32:39;9.10;99.90
11840;DHT22;5979;50.800;4.904;2023-04-03T10:40:31;9.30;99.90
11840;DHT22;5979;50.800;4.904;2023-04-03T10:43:18;9.40;99.90
11840;DHT22;5979;50.800;4.904;2023-04-03T10:45:51;9.40;99.90
11840;DHT22;5979;50.800;4.904;2023-04-03T10:54:24;9.20;99.90
11840;DHT22;5979;50.800;4.904;2023-04-03T10:56:57;9.40;99.90
11840;DHT22;5979;50.800;4.904;2023-04-03T10:59:33;9.40;99.90
11840;DHT22;5979;50.800;4.904;2023-04-03T11:02:07;9.30;99.90
11840;DHT22;5979;50.800;4.904;2023-04-03T11:04:39;9.00;99.90
11840;DHT22;5979;50.800;4.904;2023-04-03T11:07:21;8.80;99.90
11840;DHT22;5979;50.800;4.904;2023-04-03T11:09:51;8.80;99.90
11840;DHT22;5979;50.800;4.904;2023-04-03T11:12:36;8.90;99.90
11840;DHT22;5979;50.800;4.904;2023-04-03T11:15:04;9.10;99.90
11840;DHT22;5979;50.800;4.904;2023-04-03T11:17:39;9.10;99.90
11840;DHT22;5979;50.800;4.904;2023-04-03T11:20:26;9.20;99.90
11840;DHT22;5979;50.800;4.904;2023-04-03T11:23:19;9.20;99.90
11840;DHT22;5979;50.800;4.904;2023-04-03T11:25:50;9.20;99.90
11840;DHT22;5979;50.800;4.904;2023-04-03T11:28:17;9.20;99.90
11840;DHT22;5979;50.800;4.904;2023-04-03T11:31:10;9.40;99.90
11840;DHT22;5979;50.800;4.904;2023-04-03T11:33:43;9.40;99.90
11840;DHT22;5979;50.800;4.904;2023-04-03T11:36:22;9.60;99.90
11840;DHT22;5979;50.800;4.904;2023-04-03T11:38:55;9.50;99.90
11840;DHT22;5979;50.800;4.904;2023-04-03T11:41:30;9.60;99.90
11840;DHT22;5979;50.800;4.904;2023-04-03T11:47:01;9.50;99.90
11840;DHT22;5979;50.800;4.904;2023-04-03T11:49:51;9.50;99.90
11840;DHT22;5979;50.800;4.904;2023-04-03T11:52:58;9.40;99.90
11840;DHT22;5979;50.800;4.904;2023-04-03T12:19:32;9.60;99.90
11840;DHT22;5979;50.800;4.904;2023-04-03T12:24:27;9.60;99.90
11840;DHT22;5979;50.800;4.904;2023-04-03T12:40:37;9.60;99.90
11840;DHT22;5979;50.800;4.904;2023-04-03T12:44:09;9.60;99.90
11840;DHT22;5979;50.800;4.904;2023-04-03T12:51:15;9.70;99.90
11840;DHT22;5979;50.800;4.904;2023-04-03T12:53:43;9.60;99.90
11840;DHT22;5979;50.800;4.904;2023-04-03T12:58:50;9.60;99.90
11840;DHT22;5979;50.800;4.904;2023-04-03T13:01:22;9.70;99.90
11840;DHT22;5979;50.800;4.904;2023-04-03T13:03:54;9.70;99.90
11840;DHT22;5979;50.800;4.904;2023-04-03T13:06:28;9.80;99.90
11840;DHT22;5979;50.800;4.904;2023-04-03T13:08:58;9.80;99.90
11840;DHT22;5979;50.800;4.904;2023-04-03T13:11:27;9.80;99.90
11840;DHT22;5979;50.800;4.904;2023-04-03T13:14:00;9.80;99.90
11840;DHT22;5979;50.800;4.904;2023-04-03T13:16:26;9.70;99.90
11840;DHT22;5979;50.800;4.904;2023-04-03T13:18:53;9.70;99.90
11840;DHT22;5979;50.800;4.904;2023-04-03T13:21:25;9.70;99.90
11840;DHT22;5979;50.800;4.904;2023-04-03T13:23:54;9.70;99.90
11840;DHT22;5979;50.800;4.904;2023-04-03T13:26:22;9.80;99.90
11840;DHT22;5979;50.800;4.904;2023-04-03T13:28:50;9.60;99.90
11840;DHT22;5979;50.800;4.904;2023-04-03T13:31:21;9.60;99.90
11840;DHT22;5979;50.800;4.904;2023-04-03T13:37:11;9.70;99.90
11840;DHT22;5979;50.800;4.904;2023-04-03T13:41:42;9.70;99.90
11840;DHT22;5979;50.800;4.904;2023-04-03T13:44:28;9.70;99.90
11840;DHT22;5979;50.800;4.904;2023-04-03T13:52:53;9.80;99.90
11840;DHT22;5979;50.800;4.904;2023-04-03T13:55:27;9.80;99.90
11840;DHT22;5979;50.800;4.904;2023-04-03T13:57:56;9.80;99.90
11840;DHT22;5979;50.800;4.904;2023-04-03T14:00:39;9.80;99.90
11840;DHT22;5979;50.800;4.904;2023-04-03T14:03:24;9.90;99.90
11840;DHT22;5979;50.800;4.904;2023-04-03T14:05:51;9.90;99.90
11840;DHT22;5979;50.800;4.904;2023-04-03T14:08:18;9.90;99.90
11840;DHT22;5979;50.800;4.904;2023-04-03T14:10:44;9.90;99.90
11840;DHT22;5979;50.800;4.904;2023-04-03T14:13:13;9.80;99.90
11840;DHT22;5979;50.800;4.904;2023-04-03T14:15:39;9.80;99.90
11840;DHT22;5979;50.800;4.904;2023-04-03T14:18:05;9.80;99.90
11840;DHT22;5979;50.800;4.904;2023-04-03T14:20:31;9.80;99.90
11840;DHT22;5979;50.800;4.904;2023-04-03T14:22:57;9.80;99.90
11840;DHT22;5979;50.800;4.904;2023-04-03T14:25:24;9.90;99.90
11840;DHT22;5979;50.800;4.904;2023-04-03T14:27:52;9.80;99.90
11840;DHT22;5979;50.800;4.904;2023-04-03T14:30:26;9.90;99.90
11840;DHT22;5979;50.800;4.904;2023-04-03T14:32:53;9.80;99.90
11840;DHT22;5979;50.800;4.904;2023-04-03T14:35:20;9.70;99.90
11840;DHT22;5979;50.800;4.904;2023-04-03T14:37:47;9.70;99.90
11840;DHT22;5979;50.800;4.904;2023-04-03T14:40:17;9.80;99.90
11840;DHT22;5979;50.800;4.904;2023-04-03T14:42:43;9.80;99.90
11840;DHT22;5979;50.800;4.904;2023-04-03T14:45:11;9.80;99.90
11840;DHT22;5979;50.800;4.904;2023-04-03T14:47:49;9.80;99.90
11840;DHT22;5979;50.800;4.904;2023-04-03T14:50:18;9.90;99.90
11840;DHT22;5979;50.800;4.904;2023-04-03T14:52:47;9.90;99.90
11840;DHT22;5979;50.800;4.904;2023-04-03T14:55:16;9.80;99.90
11840;DHT22;5979;50.800;4.904;2023-04-03T14:57:42;9.80;99.90
11840;DHT22;5979;50.800;4.904;2023-04-03T15:00:14;9.80;99.90
11840;DHT22;5979;50.800;4.904;2023-04-03T15:02:41;9.70;99.90
11840;DHT22;5979;50.800;4.904;2023-04-03T15:05:09;9.80;99.90
11840;DHT22;5979;50.800;4.904;2023-04-03T15:07:41;9.80;99.90
11840;DHT22;5979;50.800;4.904;2023-04-03T15:12:42;9.80;99.90
11840;DHT22;5979;50.800;4.904;2023-04-03T15:15:09;9.80;99.90
11840;DHT22;5979;50.800;4.904;2023-04-03T15:17:36;9.90;99.90
11840;DHT22;5979;50.800;4.904;2023-04-03T15:20:02;9.90;99.90
11840;DHT22;5979;50.800;4.904;2023-04-03T15:22:28;9.80;99.90
11840;DHT22;5979;50.800;4.904;2023-04-03T15:24:54;9.80;99.90
11840;DHT22;5979;50.800;4.904;2023-04-03T15:27:20;9.80;99.90
11840;DHT22;5979;50.800;4.904;2023-04-03T15:29:46;9.80;99.90
11840;DHT22;5979;50.800;4.904;2023-04-03T15:32:12;9.80;99.90
11840;DHT22;5979;50.800;4.904;2023-04-03T15:34:38;9.80;99.90
11840;DHT22;5979;50.800;4.904;2023-04-03T15:37:04;9.70;99.90
11840;DHT22;5979;50.800;4.904;2023-04-03T15:39:30;9.70;99.90
11840;DHT22;5979;50.800;4.904;2023-04-03T15:41:56;9.80;99.90
11840;DHT22;5979;50.800;4.904;2023-04-03T15:44:25;9.90;99.90
11840;DHT22;5979;50.800;4.904;2023-04-03T15:46:51;9.80;99.90
11840;DHT22;5979;50.800;4.904;2023-04-03T15:49:18;9.90;99.90
11840;DHT22;5979;50.800;4.904;2023-04-03T15:51:44;9.90;99.90
11840;DHT22;5979;50.800;4.904;2023-04-03T15:54:10;9.80;99.90
11840;DHT22;5979;50.800;4.904;2023-04-03T15:56:35;9.80;99.90
11840;DHT22;5979;50.800;4.904;2023-04-03T15:59:01;9.70;99.90
11840;DHT22;5979;50.800;4.904;2023-04-03T16:01:27;9.70;99.90
11840;DHT22;5979;50.800;4.904;2023-04-03T16:03:53;9.70;99.90
11840;DHT22;5979;50.800;4.904;2023-04-03T16:06:20;9.80;99.90
11840;DHT22;5979;50.800;4.904;2023-04-03T16:08:48;9.80;99.90
11840;DHT22;5979;50.800;4.904;2023-04-03T16:11:14;9.80;99.90
11840;DHT22;5979;50.800;4.904;2023-04-03T16:13:40;9.80;99.90
11840;DHT22;5979;50.800;4.904;2023-04-03T16:16:07;9.80;99.90
11840;DHT22;5979;50.800;4.904;2023-04-03T16:18:34;9.80;99.90
11840;DHT22;5979;50.800;4.904;2023-04-03T16:21:01;9.80;99.90
11840;DHT22;5979;50.800;4.904;2023-04-03T16:23:27;9.80;99.90
11840;DHT22;5979;50.800;4.904;2023-04-03T16:25:52;9.80;99.90
11840;DHT22;5979;50.800;4.904;2023-04-03T16:28:18;9.80;99.90
11840;DHT22;5979;50.800;4.904;2023-04-03T16:30:45;9.70;99.90
11840;DHT22;5979;50.800;4.904;2023-04-03T16:33:13;9.80;99.90
11840;DHT22;5979;50.800;4.904;2023-04-03T16:35:39;9.70;99.90
11840;DHT22;5979;50.800;4.904;2023-04-03T16:38:07;9.70;99.90
11840;DHT22;5979;50.800;4.904;2023-04-03T16:40:33;9.70;99.90
11840;DHT22;5979;50.800;4.904;2023-04-03T16:43:00;9.70;99.90
11840;DHT22;5979;50.800;4.904;2023-04-03T16:45:26;9.70;99.90
11840;DHT22;5979;50.800;4.904;2023-04-03T16:47:52;9.70;99.90
11840;DHT22;5979;50.800;4.904;2023-04-03T16:50:17;9.70;99.90
11840;DHT22;5979;50.800;4.904;2023-04-03T16:52:45;9.70;99.90
11840;DHT22;5979;50.800;4.904;2023-04-03T16:55:12;9.70;99.90
11840;DHT22;5979;50.800;4.904;2023-04-03T16:57:37;9.70;99.90
11840;DHT22;5979;50.800;4.904;2023-04-03T17:00:04;9.60;99.90
11840;DHT22;5979;50.800;4.904;2023-04-03T17:02:30;9.50;99.90
11840;DHT22;5979;50.800;4.904;2023-04-03T17:04:56;9.40;99.90
11840;DHT22;5979;50.800;4.904;2023-04-03T17:07:23;9.40;99.90
11840;DHT22;5979;50.800;4.904;2023-04-03T17:09:50;9.40;99.90
11840;DHT22;5979;50.800;4.904;2023-04-03T17:12:16;9.40;99.90
11840;DHT22;5979;50.800;4.904;2023-04-03T17:14:42;9.40;99.90
11840;DHT22;5979;50.800;4.904;2023-04-03T17:17:09;9.30;99.90
11840;DHT22;5979;50.800;4.904;2023-04-03T17:19:36;9.30;99.90
11840;DHT22;5979;50.800;4.904;2023-04-03T17:22:02;9.20;99.90
11840;DHT22;5979;50.800;4.904;2023-04-03T17:24:28;9.20;99.90
11840;DHT22;5979;50.800;4.904;2023-04-03T17:26:54;9.10;99.90
11840;DHT22;5979;50.800;4.904;2023-04-03T17:29:20;9.00;99.90
11840;DHT22;5979;50.800;4.904;2023-04-03T17:31:45;9.00;99.90
11840;DHT22;5979;50.800;4.904;2023-04-03T17:34:11;9.00;99.90
11840;DHT22;5979;50.800;4.904;2023-04-03T17:36:37;8.90;99.90
11840;DHT22;5979;50.800;4.904;2023-04-03T17:39:04;8.90;99.90
11840;DHT22;5979;50.800;4.904;2023-04-03T17:41:30;8.80;99.90
11840;DHT22;5979;50.800;4.904;2023-04-03T17:43:56;8.70;99.90
11840;DHT22;5979;50.800;4.904;2023-04-03T17:46:23;8.70;99.90
11840;DHT22;5979;50.800;4.904;2023-04-03T17:48:49;8.60;99.90
11840;DHT22;5979;50.800;4.904;2023-04-03T17:51:20;8.60;99.90
11840;DHT22;5979;50.800;4.904;2023-04-03T17:53:46;8.60;99.90
11840;DHT22;5979;50.800;4.904;2023-04-03T17:56:18;8.60;99.90
11840;DHT22;5979;50.800;4.904;2023-04-03T17:58:44;8.50;99.90
11840;DHT22;5979;50.800;4.904;2023-04-03T18:01:17;8.40;99.90
11840;DHT22;5979;50.800;4.904;2023-04-03T18:03:43;8.20;99.90